createdAt,value
2023-08-10T00:03:01.417Z,19.20
2023-08-10T00:08:09.688Z,17.00
2023-08-10T00:13:17.788Z,17.02
2023-08-10T00:18:25.898Z,19.31
2023-08-10T00:23:33.849Z,17.98
2023-08-10T00:28:41.636Z,16.11
2023-08-10T00:33:49.369Z,17.66
2023-08-10T00:38:57.436Z,18.98
2023-08-10T00:44:05.675Z,16.90
2023-08-10T00:49:13.811Z,16.91
2023-08-10T00:54:21.565Z,19.02
2023-08-10T00:59:31.939Z,17.17
2023-08-10T01:04:39.636Z,15.79
2023-08-10T01:09:57.892Z,18.32
2023-08-10T01:15:14.449Z,17.92
2023-08-10T01:20:24.703Z,15.77
2023-08-10T01:25:34.333Z,16.40
2023-08-10T01:30:42.354Z,18.47
2023-08-10T01:35:50.069Z,16.55
2023-08-10T01:40:57.837Z,15.03
2023-08-10T01:46:06.261Z,16.73
2023-08-10T01:51:16.521Z,18.09
2023-08-10T01:56:24.645Z,15.98
2023-08-10T02:01:32.714Z,15.78
2023-08-10T02:06:41.863Z,17.91
2023-08-10T02:11:50.130Z,16.31
2023-08-10T02:16:57.923Z,14.55
2023-08-10T02:22:06.509Z,16.35
2023-08-10T02:27:14.651Z,17.45
2023-08-10T02:32:22.381Z,15.30
2023-08-10T02:37:30.138Z,15.30
2023-08-10T02:42:37.851Z,17.35
2023-08-10T02:47:46.151Z,15.53
2023-08-10T02:52:53.860Z,13.87
2023-08-10T02:58:01.948Z,15.57
2023-08-10T03:03:10.195Z,16.91
2023-08-10T03:08:17.881Z,14.86
2023-08-10T03:13:25.583Z,14.85
2023-08-10T03:18:33.512Z,17.01
2023-08-10T03:23:41.201Z,15.27
2023-08-10T03:28:49.725Z,13.62
2023-08-10T03:33:57.412Z,14.29
2023-08-10T03:39:05.271Z,16.87
2023-08-10T03:44:13.301Z,15.06
2023-08-10T03:49:24.140Z,13.40
2023-08-10T03:54:33.004Z,15.28
2023-08-10T03:59:40.716Z,16.89
2023-08-10T04:04:48.757Z,14.79
2023-08-10T04:09:56.438Z,15.14
2023-08-10T04:15:05.108Z,17.19
2023-08-10T04:20:15.386Z,15.28
2023-08-10T04:25:23.843Z,15.68
2023-08-10T04:30:31.819Z,17.41
2023-08-10T04:35:39.813Z,15.39
2023-08-10T04:40:47.540Z,15.73
2023-08-10T04:45:55.256Z,18.45
2023-08-10T04:51:03.544Z,16.96
2023-08-10T04:56:11.324Z,15.17
2023-08-10T05:01:19.402Z,16.05
2023-08-10T05:06:27.776Z,18.71
2023-08-10T05:11:35.584Z,18.99
2023-08-10T05:16:43.705Z,16.98
2023-08-10T05:21:51.713Z,18.14
2023-08-10T05:26:59.407Z,20.10
2023-08-10T05:32:08.057Z,18.72
2023-08-10T05:37:16.101Z,17.18
2023-08-10T05:42:24.580Z,18.07
2023-08-10T05:47:33.461Z,20.41
2023-08-10T05:52:41.960Z,18.95
2023-08-10T05:57:50.055Z,19.15
2023-08-10T06:02:57.812Z,20.48
2023-08-10T06:08:08.391Z,18.94
2023-08-10T06:13:16.110Z,19.47
2023-08-10T06:18:24.127Z,21.04
2023-08-10T06:23:32.248Z,19.65
2023-08-10T06:28:40.563Z,18.84
2023-08-10T06:33:48.445Z,20.01
2023-08-10T06:38:56.512Z,21.36
2023-08-10T06:44:04.701Z,20.06
2023-08-10T06:49:12.767Z,19.39
2023-08-10T06:54:21.770Z,20.40
2023-08-10T07:04:57.602Z,20.36
2023-08-10T07:10:07.349Z,19.84
2023-08-10T07:15:18.708Z,19.86
2023-08-10T07:20:27.148Z,19.73
2023-08-10T07:25:35.417Z,21.08
2023-08-10T07:30:43.211Z,22.05
2023-08-10T07:35:51.982Z,21.18
2023-08-10T07:40:59.911Z,20.75
2023-08-10T07:46:07.915Z,20.52
2023-08-10T07:51:16.058Z,20.53
2023-08-10T07:56:24.133Z,20.70
2023-08-10T08:01:35.112Z,20.90
2023-08-10T08:06:44.658Z,21.08
2023-08-10T08:11:55.909Z,21.35
2023-08-10T08:17:05.806Z,21.66
2023-08-10T08:22:16.872Z,22.01
2023-08-10T08:27:26.445Z,22.23
2023-08-10T08:32:50.538Z,22.38
2023-08-10T08:38:04.466Z,22.47
2023-08-10T08:43:14.296Z,22.47
2023-08-10T08:48:29.567Z,22.60
2023-08-10T08:53:54.004Z,22.69
2023-08-10T08:59:06.086Z,22.87
2023-08-10T09:04:14.281Z,23.13
2023-08-10T09:09:26.069Z,23.34
2023-08-10T09:14:33.966Z,23.50
2023-08-10T09:19:43.542Z,23.54
2023-08-10T09:24:54.027Z,23.27
2023-08-10T09:30:05.049Z,23.28
2023-08-10T09:35:18.560Z,23.38
2023-08-10T09:40:27.118Z,23.54
2023-08-10T09:45:36.786Z,23.63
2023-08-10T09:50:48.707Z,23.77
2023-08-10T09:55:59.633Z,24.09
2023-08-10T10:01:09.441Z,24.44
2023-08-10T10:06:20.489Z,24.79
2023-08-10T10:11:31.429Z,24.95
2023-08-10T10:16:39.793Z,24.90
2023-08-10T10:21:48.934Z,25.02
2023-08-10T10:27:06.732Z,25.22
2023-08-10T10:32:19.984Z,25.09
2023-08-10T10:37:34.190Z,24.65
2023-08-10T10:43:08.669Z,24.49
2023-08-10T10:48:17.187Z,24.30
2023-08-10T10:53:26.563Z,24.10
2023-08-10T10:58:34.425Z,23.97
2023-08-10T11:03:43.475Z,23.96
2023-08-10T11:08:54.877Z,24.25
2023-08-10T11:14:03.249Z,24.63
2023-08-10T11:19:14.448Z,24.57
2023-08-10T11:24:22.416Z,24.36
2023-08-10T11:29:32.341Z,24.14
2023-08-10T11:34:41.626Z,23.98
2023-08-10T11:39:49.299Z,24.39
2023-08-10T11:44:57.468Z,24.86
2023-08-10T11:50:07.455Z,25.24
2023-08-10T11:55:18.159Z,25.65
2023-08-10T12:00:31.585Z,25.95
2023-08-10T12:05:47.573Z,25.82
2023-08-10T12:11:06.310Z,25.52
2023-08-10T12:16:18.832Z,25.13
2023-08-10T12:21:27.041Z,24.66
2023-08-10T12:26:35.328Z,24.29
2023-08-10T12:31:43.849Z,24.41
2023-08-10T12:36:54.903Z,24.73
2023-08-10T12:42:04.247Z,24.90
2023-08-10T12:47:12.966Z,24.79
2023-08-10T12:52:21.016Z,24.55
2023-08-10T12:57:30.331Z,24.19
2023-08-10T13:02:39.062Z,24.02
2023-08-10T13:07:48.542Z,24.20
2023-08-10T13:12:57.171Z,24.57
2023-08-10T13:18:05.392Z,24.94
2023-08-10T13:23:13.178Z,24.88
2023-08-10T13:28:21.537Z,24.80
2023-08-10T13:33:30.233Z,24.70
2023-08-10T13:38:38.129Z,24.94
2023-08-10T13:43:49.832Z,25.22
2023-08-10T13:48:58.228Z,25.55
2023-08-10T13:54:07.292Z,25.72
2023-08-10T13:59:17.321Z,25.66
2023-08-10T14:04:25.281Z,25.34
2023-08-10T14:09:34.157Z,25.33
2023-08-10T14:14:42.821Z,25.53
2023-08-10T14:19:50.784Z,25.43
2023-08-10T14:24:58.554Z,24.88
2023-08-10T14:30:07.734Z,24.47
2023-08-10T14:35:15.917Z,24.43
2023-08-10T14:40:23.854Z,24.40
2023-08-10T14:45:31.705Z,24.24
2023-08-10T14:50:39.548Z,24.03
2023-08-10T14:55:47.371Z,23.96
2023-08-10T15:00:55.802Z,23.93
2023-08-10T15:06:08.564Z,23.83
2023-08-10T15:11:17.270Z,23.70
2023-08-10T15:16:25.041Z,23.58
2023-08-10T15:21:33.173Z,23.41
2023-08-10T15:26:41.163Z,23.22
2023-08-10T15:31:48.871Z,23.07
2023-08-10T15:36:58.393Z,22.95
2023-08-10T15:42:07.179Z,22.83
2023-08-10T15:47:15.018Z,22.72
2023-08-10T15:52:23.043Z,22.61
2023-08-10T15:57:30.815Z,22.51
2023-08-10T16:02:40.740Z,22.44
2023-08-10T16:07:50.924Z,22.42
2023-08-10T16:13:04.213Z,22.42
2023-08-10T16:18:26.790Z,22.43
2023-08-10T16:23:40.785Z,22.36
2023-08-10T16:28:56.363Z,22.25
2023-08-10T16:34:08.920Z,22.08
2023-08-10T16:39:19.853Z,21.90
2023-08-10T16:44:31.147Z,21.70
2023-08-10T16:49:40.837Z,21.55
2023-08-10T16:54:50.745Z,21.52
2023-08-10T17:00:08.319Z,21.52
2023-08-10T17:05:17.262Z,21.56
2023-08-10T17:10:27.890Z,21.63
2023-08-10T17:15:36.965Z,21.60
2023-08-10T17:20:45.580Z,21.50
2023-08-10T17:25:54.610Z,21.38
2023-08-10T17:31:06.709Z,21.26
2023-08-10T17:36:14.889Z,21.11
2023-08-10T17:41:25.433Z,20.96
2023-08-10T17:46:34.757Z,20.78
2023-08-10T17:51:44.328Z,20.55
2023-08-10T17:56:53.157Z,20.30
2023-08-10T18:02:01.598Z,20.03
2023-08-10T18:07:09.424Z,19.74
2023-08-10T18:12:17.219Z,19.41
2023-08-10T18:17:25.548Z,19.10
2023-08-10T18:22:33.617Z,18.88
2023-08-10T18:27:41.450Z,21.17
2023-08-10T18:32:49.691Z,22.41
2023-08-10T18:37:57.851Z,20.78
2023-08-10T18:43:05.928Z,19.69
2023-08-10T18:48:22.816Z,18.91
2023-08-10T18:53:31.575Z,18.27
2023-08-10T18:58:39.318Z,19.42
2023-08-10T19:03:47.167Z,21.77
2023-08-10T19:08:55.042Z,20.57
2023-08-10T19:14:02.707Z,19.12
2023-08-10T19:19:10.822Z,18.17
2023-08-10T19:24:18.566Z,17.93
2023-08-10T19:29:26.823Z,20.56
2023-08-10T19:34:34.535Z,20.94
2023-08-10T19:39:42.773Z,19.09
2023-08-10T19:44:50.412Z,17.95
2023-08-10T19:49:59.254Z,17.21
2023-08-10T19:55:09.325Z,18.02
2023-08-10T20:00:18.464Z,20.85
2023-08-10T20:05:26.652Z,20.46
2023-08-10T20:10:43.820Z,18.59
2023-08-10T20:15:58.781Z,17.52
2023-08-10T20:21:13.522Z,18.66
2023-08-10T20:26:25.599Z,21.20
2023-08-10T20:31:40.059Z,19.84
2023-08-10T20:36:51.725Z,18.25
2023-08-10T20:42:00.862Z,17.35
2023-08-10T20:47:09.226Z,18.96
2023-08-10T20:52:19.742Z,20.77
2023-08-10T20:57:33.504Z,19.02
2023-08-10T21:02:43.338Z,17.68
2023-08-10T21:07:51.561Z,18.24
2023-08-10T21:13:03.812Z,20.67
2023-08-10T21:18:12.939Z,19.42
2023-08-10T21:23:24.599Z,17.79
2023-08-10T21:28:45.320Z,17.15
2023-08-10T21:33:56.941Z,19.81
2023-08-10T21:39:08.338Z,19.95
2023-08-10T21:44:19.159Z,17.96
2023-08-10T21:49:37.624Z,16.76
2023-08-10T21:54:48.508Z,18.07
2023-08-10T22:00:01.055Z,20.33
2023-08-10T22:05:11.071Z,18.90
2023-08-10T22:10:20.587Z,17.21
2023-08-10T22:15:34.997Z,17.76
2023-08-10T22:20:44.279Z,20.14
2023-08-10T22:25:53.587Z,18.73
2023-08-10T22:31:05.418Z,17.00
2023-08-10T22:36:13.859Z,17.80
2023-08-10T22:41:24.092Z,19.97
2023-08-10T22:46:32.489Z,18.36
2023-08-10T22:51:40.846Z,16.69
2023-08-10T22:56:49.679Z,17.28
2023-08-10T23:01:57.616Z,19.65
2023-08-10T23:07:06.944Z,18.22
2023-08-10T23:12:14.679Z,16.50
2023-08-10T23:17:22.500Z,17.09
2023-08-10T23:22:30.887Z,19.41
2023-08-10T23:27:38.994Z,17.84
2023-08-10T23:32:46.724Z,16.12
2023-08-10T23:37:57.298Z,17.59
2023-08-10T23:43:05.431Z,18.92
2023-08-10T23:48:13.191Z,16.95
2023-08-10T23:53:21.544Z,16.15
2023-08-10T23:58:38.584Z,18.70
